Time;durP1;ratioP1;P1;durP2;ratioP2;P2;SDS_P1;SDS_P2;PMS_P1;PMS_P2;Temp;Humidity;BMP_temperature;BMP_pressure;BME280_temperature;BME280_humidity;BME280_pressure;Samples;Min_cycle;Max_cycle;Signal;HPM_P1;HPM_P2
2021/03/31 00:00:41;;;;;;;14.50;6.15;;;;;;;12.89;40.66;102156.19;5027351;28;20069;-67
2021/03/31 00:03:10;;;;;;;15.02;5.88;;;;;;;12.90;40.17;102159.69;5030689;28;20503;-66
2021/03/31 00:05:36;;;;;;;13.13;5.30;;;;;;;12.92;40.21;102144.88;5032441;28;20042;-67
2021/03/31 00:08:02;;;;;;;12.80;5.65;;;;;;;12.93;40.63;102148.34;5032152;28;20056;-66
2021/03/31 00:10:34;;;;;;;13.15;5.45;;;;;;;12.91;40.99;102149.22;5034379;28;20060;-66
2021/03/31 00:13:01;;;;;;;16.95;5.50;;;;;;;12.88;41.10;102140.53;5027521;28;20058;-67
2021/03/31 00:15:27;;;;;;;19.90;6.40;;;;;;;12.85;41.07;102141.44;5031201;28;20050;-67
2021/03/31 00:17:53;;;;;;;14.85;5.50;;;;;;;12.84;41.60;102146.66;5039718;28;20418;-66
2021/03/31 00:20:19;;;;;;;14.18;5.50;;;;;;;12.81;41.69;102138.84;5035583;28;20049;-67
2021/03/31 00:22:45;;;;;;;14.52;5.60;;;;;;;12.78;42.45;102134.50;5032304;28;20045;-67
2021/03/31 00:25:12;;;;;;;16.65;6.70;;;;;;;12.71;42.82;102130.19;5032678;28;20391;-67
2021/03/31 00:27:38;;;;;;;16.42;5.85;;;;;;;12.66;42.71;102125.00;5041636;28;20053;-67
2021/03/31 00:30:08;;;;;;;14.80;5.38;;;;;;;12.63;43.40;102119.78;5027703;28;20045;-64
2021/03/31 00:32:34;;;;;;;17.48;5.95;;;;;;;12.59;43.24;102118.09;5032574;28;20091;-66
2021/03/31 00:35:00;;;;;;;14.35;5.07;;;;;;;12.54;43.59;102112.00;5038464;28;20053;-67
2021/03/31 00:37:26;;;;;;;16.33;5.60;;;;;;;12.55;42.95;102111.13;5045691;28;20067;-67
2021/03/31 00:39:52;;;;;;;13.40;4.88;;;;;;;12.50;43.39;102102.47;5021628;28;20050;-68
2021/03/31 00:42:18;;;;;;;13.18;5.28;;;;;;;12.48;43.30;102104.22;5027631;28;20054;-66
2021/03/31 00:44:44;;;;;;;15.27;4.75;;;;;;;12.47;43.66;102107.72;5035261;28;20075;-68
2021/03/31 00:47:11;;;;;;;11.45;4.72;;;;;;;12.46;43.94;102099.03;5032483;28;20042;-66
2021/03/31 00:49:37;;;;;;;14.27;4.90;;;;;;;12.46;43.77;102096.41;5025292;28;20045;-68
2021/03/31 00:52:05;;;;;;;15.25;4.72;;;;;;;12.45;43.86;102094.69;5013725;28;20069;-67
2021/03/31 00:54:30;;;;;;;15.70;5.68;;;;;;;12.42;44.09;102094.69;5030129;28;20041;-68
2021/03/31 00:56:56;;;;;;;12.40;4.68;;;;;;;12.42;44.05;102089.47;5035143;28;20057;-67
2021/03/31 00:59:22;;;;;;;12.13;4.30;;;;;;;12.40;44.10;102086.88;5033340;28;20431;-68
2021/03/31 01:01:49;;;;;;;11.32;4.75;;;;;;;12.36;44.20;102086.91;5024829;28;20053;-66
2021/03/31 01:04:16;;;;;;;14.75;4.57;;;;;;;12.36;44.18;102082.53;5040965;28;20445;-67
2021/03/31 01:06:42;;;;;;;17.27;4.95;;;;;;;12.32;44.59;102078.22;5031492;28;20050;-67
2021/03/31 01:09:08;;;;;;;13.35;4.88;;;;;;;12.33;43.60;102079.06;5031867;28;20053;-66
2021/03/31 01:11:41;;;;;;;12.02;4.43;;;;;;;12.33;44.12;102079.94;5040674;28;20486;-66
2021/03/31 01:14:14;;;;;;;15.38;5.60;;;;;;;12.33;44.03;102077.31;5032862;28;20061;-68
2021/03/31 01:16:47;;;;;;;13.93;4.97;;;;;;;12.32;43.64;102069.50;5033945;28;20131;-68
2021/03/31 01:19:44;;;;;;;12.30;4.75;;;;;;;12.33;43.35;102066.88;5034598;28;20525;-69
2021/03/31 01:22:41;;;;;;;11.45;5.45;;;;;;;12.33;43.86;102069.50;5030783;28;20426;-68
2021/03/31 01:25:15;;;;;;;10.27;4.47;;;;;;;12.30;44.00;102064.31;4993937;28;20045;-66
2021/03/31 01:28:04;;;;;;;13.70;4.75;;;;;;;12.26;44.05;102058.25;5033966;28;20042;-67
2021/03/31 01:30:38;;;;;;;11.13;4.10;;;;;;;12.24;43.41;102059.09;5036218;28;20060;-64
2021/03/31 01:33:32;;;;;;;12.40;4.55;;;;;;;12.20;44.09;102052.19;5024766;28;20049;-66
2021/03/31 01:35:59;;;;;;;11.57;4.40;;;;;;;12.17;44.34;102052.19;5030806;28;20411;-66
2021/03/31 01:38:27;;;;;;;9.43;3.92;;;;;;;12.15;44.65;102046.09;5035386;28;20610;-66
2021/03/31 01:40:56;;;;;;;12.88;4.10;;;;;;;12.12;44.42;102053.09;5025873;28;20085;-68
2021/03/31 01:43:25;;;;;;;12.88;3.92;;;;;;;12.12;44.51;102049.59;5030936;28;20152;-67
2021/03/31 01:45:53;;;;;;;9.35;4.13;;;;;;;12.06;44.45;102060.94;5029612;28;20076;-67
2021/03/31 01:48:22;;;;;;;12.13;4.20;;;;;;;12.03;44.89;102050.50;5018738;28;20079;-67
2021/03/31 01:50:54;;;;;;;13.25;3.70;;;;;;;12.02;45.53;102050.50;5037061;28;20491;-68
2021/03/31 01:53:22;;;;;;;13.77;4.75;;;;;;;11.97;45.94;102045.28;5028165;28;20049;-64
2021/03/31 01:55:50;;;;;;;8.13;4.05;;;;;;;11.96;45.99;102056.59;5023865;28;20475;-68
2021/03/31 01:58:17;;;;;;;10.70;4.30;;;;;;;11.94;45.69;102045.28;5035526;28;20054;-67
2021/03/31 02:00:44;;;;;;;9.00;4.32;;;;;;;11.93;46.01;102048.75;5036954;28;20051;-68
2021/03/31 02:03:14;;;;;;;9.02;3.67;;;;;;;11.90;45.85;102044.44;5034518;28;20095;-68
2021/03/31 02:05:40;;;;;;;11.35;4.30;;;;;;;11.88;46.54;102046.19;5033764;28;20053;-67
2021/03/31 02:08:08;;;;;;;9.13;3.75;;;;;;;11.86;46.57;102041.84;5031457;28;20174;-66
2021/03/31 02:10:35;;;;;;;10.75;3.90;;;;;;;11.82;46.78;102033.19;5027218;28;20045;-67
2021/03/31 02:13:04;;;;;;;12.75;3.97;;;;;;;11.76;47.16;102039.28;5035846;28;20053;-67
2021/03/31 02:15:32;;;;;;;8.55;3.88;;;;;;;11.71;46.97;102035.81;5036765;28;20069;-67
2021/03/31 02:18:00;;;;;;;11.57;4.28;;;;;;;11.71;47.18;102033.22;5034773;28;20048;-68
2021/03/31 02:20:26;;;;;;;9.73;4.13;;;;;;;11.64;46.08;102037.59;5035199;28;20049;-69
2021/03/31 02:22:53;;;;;;;10.80;3.78;;;;;;;11.62;46.99;102028.91;5029310;28;20054;-66
2021/03/31 02:25:20;;;;;;;14.60;4.90;;;;;;;11.60;47.42;102030.63;5033718;28;20050;-66
2021/03/31 02:27:48;;;;;;;11.60;4.38;;;;;;;11.58;47.10;102026.31;5030976;28;20140;-66
2021/03/31 02:30:16;;;;;;;11.82;4.05;;;;;;;11.54;47.34;102020.22;5031437;28;20054;-65
2021/03/31 02:32:45;;;;;;;10.52;4.03;;;;;;;11.49;46.92;102021.97;5038620;28;20057;-68
2021/03/31 02:35:14;;;;;;;10.90;4.32;;;;;;;11.49;46.56;102019.34;5040590;28;20131;-66
2021/03/31 02:37:42;;;;;;;11.43;4.78;;;;;;;11.46;47.13;102014.19;5031587;28;20553;-65
2021/03/31 02:40:11;;;;;;;11.02;4.10;;;;;;;11.46;47.71;102017.63;5030446;28;20049;-65
2021/03/31 02:42:38;;;;;;;11.18;4.50;;;;;;;11.45;47.84;102007.22;5023720;28;20432;-66
2021/03/31 02:45:07;;;;;;;9.32;3.92;;;;;;;11.43;47.11;102006.34;5030438;28;20446;-65
2021/03/31 02:47:39;;;;;;;10.18;3.90;;;;;;;11.41;47.01;102008.97;5037519;28;20042;-66
2021/03/31 02:50:07;;;;;;;7.50;3.42;;;;;;;11.40;47.91;102007.25;5039885;28;20053;-66
2021/03/31 02:52:34;;;;;;;8.48;3.90;;;;;;;11.38;48.18;102003.75;5023169;28;20050;-65
2021/03/31 02:55:01;;;;;;;12.70;4.03;;;;;;;11.33;48.31;102002.88;5029435;28;20061;-66
2021/03/31 02:57:28;;;;;;;10.00;3.85;;;;;;;11.31;48.75;102004.66;5032873;28;20042;-65
2021/03/31 02:59:54;;;;;;;10.63;4.55;;;;;;;11.30;48.82;102000.31;5037433;28;20064;-68
2021/03/31 03:02:22;;;;;;;10.60;3.97;;;;;;;11.30;47.41;102001.16;5028013;28;20068;-66
2021/03/31 03:04:49;;;;;;;7.43;4.10;;;;;;;11.27;48.34;101998.59;5031527;28;20057;-65
2021/03/31 03:07:15;;;;;;;10.85;4.65;;;;;;;11.23;49.27;102002.06;5031736;28;20050;-67
2021/03/31 03:09:43;;;;;;;10.90;4.20;;;;;;;11.20;48.01;102002.94;5032067;28;20442;-66
2021/03/31 03:12:11;;;;;;;8.88;4.15;;;;;;;11.17;48.60;102000.31;5030999;28;20064;-66
2021/03/31 03:14:40;;;;;;;14.27;4.63;;;;;;;11.15;49.14;101999.47;5028542;28;20533;-66
2021/03/31 03:17:06;;;;;;;9.30;4.22;;;;;;;11.15;48.25;102001.22;5034682;28;20095;-66
2021/03/31 03:19:33;;;;;;;9.77;3.78;;;;;;;11.12;49.52;101996.00;5032361;28;20041;-66
2021/03/31 03:22:01;;;;;;;10.40;4.57;;;;;;;11.09;49.43;102006.41;5027076;28;20097;-66
2021/03/31 03:24:27;;;;;;;9.55;3.92;;;;;;;11.05;48.62;101995.13;5032846;28;20056;-65
2021/03/31 03:26:53;;;;;;;12.13;5.05;;;;;;;11.03;49.38;101991.66;5033065;28;20061;-66
2021/03/31 03:29:20;;;;;;;11.10;4.05;;;;;;;10.99;50.26;101993.41;5031744;28;20065;-65
2021/03/31 03:31:47;;;;;;;14.70;4.32;;;;;;;10.97;49.80;101992.56;5030396;28;20052;-67
2021/03/31 03:34:14;;;;;;;9.77;4.30;;;;;;;10.96;48.56;101985.59;5033179;28;20045;-65
2021/03/31 03:36:41;;;;;;;10.43;4.47;;;;;;;10.93;49.69;101984.75;5031428;28;20661;-65
2021/03/31 03:39:08;;;;;;;9.80;3.47;;;;;;;10.90;48.99;101985.59;5033855;28;20052;-66
2021/03/31 03:41:34;;;;;;;12.65;4.50;;;;;;;10.89;48.97;101983.84;5023817;28;20052;-65
2021/03/31 03:44:01;;;;;;;15.77;4.70;;;;;;;10.87;49.54;101978.66;5022797;28;20049;-65
2021/03/31 03:46:30;;;;;;;13.73;4.80;;;;;;;10.88;49.18;101983.00;5030094;28;20046;-65
2021/03/31 03:48:57;;;;;;;13.57;4.25;;;;;;;10.86;49.96;101982.13;5023490;28;20048;-65
2021/03/31 03:51:24;;;;;;;10.68;4.65;;;;;;;10.84;49.62;101988.22;5036441;28;20046;-64
2021/03/31 03:53:51;;;;;;;15.55;5.03;;;;;;;10.82;50.04;101983.00;5036645;28;20045;-66
2021/03/31 03:56:17;;;;;;;11.02;4.05;;;;;;;10.79;50.18;101984.72;5032294;28;20049;-66
2021/03/31 03:58:43;;;;;;;19.83;5.20;;;;;;;10.76;49.84;101985.59;5025842;28;20052;-65
2021/03/31 04:01:09;;;;;;;13.15;5.70;;;;;;;10.71;49.90;101983.00;5031707;28;20050;-65
2021/03/31 04:03:36;;;;;;;14.18;4.57;;;;;;;10.69;50.15;101981.25;5021635;28;20459;-66
2021/03/31 04:06:02;;;;;;;11.93;4.72;;;;;;;10.64;49.78;101978.66;5019706;28;20045;-65
2021/03/31 04:08:28;;;;;;;10.02;4.30;;;;;;;10.62;49.74;101974.34;5037087;28;20046;-66
2021/03/31 04:10:57;;;;;;;14.38;5.18;;;;;;;10.62;49.55;101971.72;5034588;28;20045;-66
2021/03/31 04:13:24;;;;;;;12.10;4.95;;;;;;;10.58;49.71;101973.47;5027925;28;20046;-66
2021/03/31 04:15:56;;;;;;;13.45;5.45;;;;;;;10.57;50.65;101974.31;5031106;28;20593;-67
2021/03/31 04:18:22;;;;;;;16.17;5.43;;;;;;;10.55;50.75;101969.09;5035821;28;20049;-67
2021/03/31 04:20:49;;;;;;;15.52;5.30;;;;;;;10.58;49.91;101969.13;5033572;28;20061;-67
2021/03/31 04:23:16;;;;;;;13.52;6.47;;;;;;;10.57;49.86;101969.13;5030795;28;20191;-67
2021/03/31 04:25:43;;;;;;;18.10;7.25;;;;;;;10.55;50.46;101966.50;5034638;28;20474;-65
2021/03/31 04:28:12;;;;;;;15.15;7.05;;;;;;;10.53;50.54;101965.63;5033562;28;20045;-66
2021/03/31 04:30:41;;;;;;;17.33;5.63;;;;;;;10.52;50.66;101963.91;5033239;28;20049;-66
2021/03/31 04:33:10;;;;;;;19.15;5.90;;;;;;;10.48;50.97;101962.16;5036756;28;20098;-66
2021/03/31 04:35:36;;;;;;;10.75;5.43;;;;;;;10.47;50.71;101963.03;5034133;28;20132;-66
2021/03/31 04:38:11;;;;;;;12.50;5.50;;;;;;;10.44;50.95;101955.22;5022978;28;22603;-65
2021/03/31 04:40:49;;;;;;;8.80;5.05;;;;;;;10.44;50.88;101964.75;5034014;28;20046;-64
2021/03/31 04:43:16;;;;;;;18.42;5.38;;;;;;;10.42;50.88;101951.78;5023730;28;20120;-65
2021/03/31 04:45:42;;;;;;;16.70;5.45;;;;;;;10.41;51.23;101960.44;5032016;28;20049;-65
2021/03/31 04:48:08;;;;;;;11.50;5.00;;;;;;;10.41;51.06;101957.84;5033101;28;20504;-64
2021/03/31 04:50:34;;;;;;;11.02;5.20;;;;;;;10.38;51.15;101963.88;5036651;28;20045;-63
2021/03/31 04:53:00;;;;;;;15.65;5.05;;;;;;;10.36;51.00;101960.41;5030229;28;20056;-65
2021/03/31 04:55:26;;;;;;;11.77;5.18;;;;;;;10.33;50.37;101964.72;5029765;28;20037;-65
2021/03/31 04:57:52;;;;;;;11.73;5.72;;;;;;;10.31;49.99;101966.47;5029674;28;20072;-65
2021/03/31 05:00:20;;;;;;;12.02;5.13;;;;;;;10.34;50.68;101963.84;5017954;28;20144;-66
2021/03/31 05:02:46;;;;;;;16.45;6.53;;;;;;;10.34;50.34;101964.72;5018082;28;20054;-65
2021/03/31 05:05:13;;;;;;;12.50;5.35;;;;;;;10.35;51.07;101962.97;5021219;28;20136;-68
2021/03/31 05:07:39;;;;;;;15.77;6.22;;;;;;;10.34;51.15;101959.53;5013386;28;20050;-66
2021/03/31 05:10:06;;;;;;;11.13;5.35;;;;;;;10.35;51.24;101965.56;5024908;28;20046;-67
2021/03/31 05:12:32;;;;;;;13.05;5.45;;;;;;;10.35;50.98;101961.25;5024421;28;20518;-68
2021/03/31 05:14:58;;;;;;;17.25;6.40;;;;;;;10.32;51.94;101960.41;5034590;28;20102;-65
2021/03/31 05:17:25;;;;;;;16.63;6.03;;;;;;;10.33;51.83;101959.53;5034706;28;20045;-66
2021/03/31 05:19:51;;;;;;;13.55;5.45;;;;;;;10.34;51.79;101956.03;5036670;28;20068;-67
2021/03/31 05:22:17;;;;;;;13.55;5.70;;;;;;;10.34;51.36;101956.03;5027231;28;20049;-65
2021/03/31 05:24:43;;;;;;;19.60;6.10;;;;;;;10.32;50.84;101961.25;5038603;28;20053;-65
2021/03/31 05:27:09;;;;;;;21.55;5.50;;;;;;;10.29;51.08;101956.03;5035402;28;20136;-66
2021/03/31 05:29:35;;;;;;;13.82;6.35;;;;;;;10.29;50.32;101961.22;5032754;28;20046;-65
2021/03/31 05:32:01;;;;;;;14.48;7.60;;;;;;;10.30;51.36;101959.50;5037292;28;20064;-67
2021/03/31 05:34:28;;;;;;;14.48;5.78;;;;;;;10.31;52.24;101953.44;5023390;28;20431;-64
2021/03/31 05:36:54;;;;;;;17.33;5.03;;;;;;;10.39;56.04;101947.41;5023212;28;20053;-67
2021/03/31 05:39:20;;;;;;;19.42;5.43;;;;;;;10.66;58.40;101955.22;5033691;28;20045;-64
2021/03/31 05:41:46;;;;;;;12.50;5.88;;;;;;;11.00;55.39;101952.63;5016454;28;20059;-66
2021/03/31 05:44:13;;;;;;;12.90;5.70;;;;;;;11.30;54.73;101954.28;5033151;28;20046;-64
2021/03/31 05:46:39;;;;;;;11.38;5.32;;;;;;;11.38;49.31;101954.28;5026159;28;20492;-64
2021/03/31 05:49:05;;;;;;;12.63;5.85;;;;;;;11.27;49.45;101953.44;5034460;28;20518;-64
2021/03/31 05:51:33;;;;;;;19.42;6.13;;;;;;;11.14;49.69;101952.59;5037192;28;20050;-67
2021/03/31 05:53:59;;;;;;;12.13;5.70;;;;;;;11.06;49.65;101952.59;5036690;28;20741;-64
2021/03/31 05:56:27;;;;;;;19.10;7.15;;;;;;;10.95;50.16;101946.53;5037156;28;20061;-65
2021/03/31 05:58:53;;;;;;;12.85;6.35;;;;;;;10.89;50.67;101945.69;5039514;28;20117;-65
2021/03/31 06:01:19;;;;;;;17.17;6.32;;;;;;;10.89;50.47;101950.91;5025310;28;20048;-66
2021/03/31 06:03:46;;;;;;;13.80;5.65;;;;;;;10.88;50.58;101948.28;5034969;28;20064;-63
2021/03/31 06:06:12;;;;;;;15.43;6.90;;;;;;;10.86;51.07;101952.63;5036290;28;20049;-64
2021/03/31 06:08:39;;;;;;;18.80;6.20;;;;;;;10.88;51.12;101949.16;5033511;28;20063;-63
2021/03/31 06:11:05;;;;;;;20.30;6.97;;;;;;;10.94;51.17;101945.69;5035478;28;20049;-62
2021/03/31 06:13:51;;;;;;;24.98;6.70;;;;;;;10.96;50.06;101948.28;5033743;28;20053;-62
2021/03/31 06:16:32;;;;;;;20.60;6.88;;;;;;;10.95;50.11;101947.41;5038700;28;20072;-63
2021/03/31 06:19:15;;;;;;;15.50;6.82;;;;;;;11.04;50.40;101943.91;5025096;28;20092;-65
2021/03/31 06:21:42;;;;;;;15.70;6.65;;;;;;;11.10;50.82;101949.13;5025501;28;20087;-64
2021/03/31 06:24:20;;;;;;;16.88;7.05;;;;;;;11.13;50.88;101943.03;5040260;28;20080;-64
2021/03/31 06:26:46;;;;;;;19.33;7.25;;;;;;;11.19;50.70;101949.13;5040603;28;20045;-63
2021/03/31 06:29:12;;;;;;;17.35;7.45;;;;;;;11.26;50.64;101947.38;5034017;28;20049;-65
2021/03/31 06:31:40;;;;;;;17.20;6.55;;;;;;;11.30;50.73;101943.00;5021198;28;20103;-64
2021/03/31 06:34:08;;;;;;;21.35;6.50;;;;;;;11.39;55.59;101952.53;5023738;28;20045;-65
2021/03/31 06:36:37;;;;;;;18.00;7.65;;;;;;;11.61;53.58;101948.13;5035396;28;20091;-66
2021/03/31 06:39:18;;;;;;;20.95;6.70;;;;;;;11.89;55.18;101942.78;5041341;28;20045;-64
2021/03/31 06:41:55;;;;;;;18.60;7.53;;;;;;;12.23;54.14;101942.59;5021614;28;20045;-63
2021/03/31 06:44:36;;;;;;;17.58;6.50;;;;;;;12.55;52.54;101939.75;5022059;28;20119;-62
2021/03/31 06:47:10;;;;;;;15.65;6.60;;;;;;;12.72;47.91;101942.22;5024712;28;20518;-65
2021/03/31 06:49:37;;;;;;;19.23;7.03;;;;;;;12.80;49.73;101938.69;5042502;28;20041;-63
2021/03/31 06:52:08;;;;;;;18.30;6.63;;;;;;;12.97;49.46;101939.38;5035431;28;20065;-63
2021/03/31 06:54:45;;;;;;;15.32;5.43;;;;;;;13.14;49.31;101931.38;5028890;28;20050;-62
2021/03/31 06:57:13;;;;;;;17.10;6.20;;;;;;;13.30;48.40;101932.06;5028315;28;20045;-63
2021/03/31 06:59:41;;;;;;;19.15;7.20;;;;;;;13.46;46.86;101929.28;5021844;28;20183;-63
2021/03/31 07:02:07;;;;;;;14.38;6.13;;;;;;;13.50;47.94;101923.16;5027409;28;20054;-62
2021/03/31 07:04:34;;;;;;;18.88;6.93;;;;;;;13.65;46.37;101935.19;5015799;28;20058;-63
2021/03/31 07:07:03;;;;;;;19.63;7.32;;;;;;;13.68;46.82;101925.53;5026050;28;20048;-63
2021/03/31 07:09:30;;;;;;;17.02;6.53;;;;;;;13.70;47.84;101927.28;5040379;28;20471;-65
2021/03/31 07:11:57;;;;;;;16.70;6.30;;;;;;;13.81;47.70;101921.00;5037605;28;20191;-63
2021/03/31 07:14:24;;;;;;;15.70;6.22;;;;;;;13.96;46.89;101919.91;5035195;28;20056;-59
2021/03/31 07:16:50;;;;;;;20.08;6.43;;;;;;;14.12;46.76;101919.72;5037694;28;20041;-65
2021/03/31 07:19:17;;;;;;;20.55;7.35;;;;;;;14.21;46.33;101916.97;5034373;28;20045;-64
2021/03/31 07:21:44;;;;;;;35.17;7.30;;;;;;;14.30;46.06;101913.31;5032104;28;20072;-66
2021/03/31 07:24:14;;;;;;;17.67;6.70;;;;;;;14.35;46.44;101911.50;5022540;28;20122;-64
2021/03/31 07:26:41;;;;;;;21.55;6.40;;;;;;;14.41;45.69;101916.63;5032182;28;20077;-64
2021/03/31 07:29:09;;;;;;;18.30;6.93;;;;;;;14.51;45.78;101919.09;5023333;28;20054;-65
2021/03/31 07:31:35;;;;;;;17.83;6.85;;;;;;;14.57;45.93;101914.63;5035493;28;20396;-63
2021/03/31 07:34:11;;;;;;;14.85;6.13;;;;;;;14.61;46.30;101918.91;5033509;28;20049;-64
2021/03/31 07:36:39;;;;;;;20.63;6.80;;;;;;;14.75;45.38;101909.97;5038387;28;20045;-64
2021/03/31 07:39:07;;;;;;;23.55;7.82;;;;;;;14.81;45.04;101909.88;5041352;28;20053;-66
2021/03/31 07:41:37;;;;;;;15.07;6.07;;;;;;;14.88;45.09;101911.50;5039777;28;20056;-64
2021/03/31 07:44:05;;;;;;;13.88;6.45;;;;;;;14.96;44.54;101916.59;5033372;28;20663;-67
2021/03/31 07:46:37;;;;;;;16.55;6.85;;;;;;;14.92;44.57;101913.13;5030061;28;20054;-64
2021/03/31 07:49:04;;;;;;;20.98;6.90;;;;;;;14.94;45.23;101913.13;5039422;28;20182;-65
2021/03/31 07:51:31;;;;;;;18.58;5.60;;;;;;;14.99;45.67;101911.28;5036017;28;20068;-66
2021/03/31 07:54:00;;;;;;;16.55;7.20;;;;;;;15.10;44.47;101911.09;5036968;28;20139;-64
2021/03/31 07:56:34;;;;;;;13.63;6.15;;;;;;;15.08;44.94;101915.50;5032183;28;20524;-66
2021/03/31 07:59:10;;;;;;;21.80;5.72;;;;;;;15.14;45.65;101910.13;5035459;28;20053;-66
2021/03/31 08:01:39;;;;;;;14.75;6.45;;;;;;;15.22;44.72;101916.06;5020936;28;20503;-65
2021/03/31 08:04:07;;;;;;;14.55;7.35;;;;;;;15.29;44.01;101911.56;5017306;28;20054;-66
2021/03/31 08:06:35;;;;;;;20.02;7.07;;;;;;;15.30;43.39;101907.22;5014166;28;20049;-68
2021/03/31 08:09:04;;;;;;;13.95;6.43;;;;;;;15.45;41.92;101913.91;5025911;28;20061;-66
2021/03/31 08:11:48;;;;;;;15.98;5.53;;;;;;;15.36;43.18;101917.56;5034873;28;20053;-63
2021/03/31 08:14:16;;;;;;;20.85;6.70;;;;;;;15.42;41.06;101913.94;5032479;28;20399;-64
2021/03/31 08:16:45;;;;;;;14.63;5.97;;;;;;;15.38;43.14;101916.63;5030560;28;20052;-65
2021/03/31 08:19:15;;;;;;;16.70;6.72;;;;;;;15.45;41.57;101917.38;5034171;28;20049;-64
2021/03/31 08:21:43;;;;;;;14.23;6.38;;;;;;;15.50;41.86;101915.53;5035930;28;20053;-63
2021/03/31 08:24:10;;;;;;;11.45;5.30;;;;;;;15.56;42.11;101909.28;5024521;28;20055;-58
2021/03/31 08:26:39;;;;;;;15.38;6.78;;;;;;;15.73;41.51;101915.94;5039089;28;20041;-64
2021/03/31 08:29:06;;;;;;;15.30;7.07;;;;;;;15.71;42.07;101921.22;5032596;28;20460;-65
2021/03/31 08:31:37;;;;;;;17.38;5.93;;;;;;;15.77;42.62;101913.19;5034273;28;20045;-66
2021/03/31 08:34:05;;;;;;;17.00;7.40;;;;;;;15.82;41.09;101921.81;5038995;28;20060;-60
2021/03/31 08:39:00;;;;;;;14.65;5.90;;;;;;;15.85;41.97;101921.78;5038539;28;20651;-67
2021/03/31 08:41:27;;;;;;;22.48;6.15;;;;;;;15.87;42.68;101921.78;5045738;28;20076;-68
2021/03/31 08:44:12;;;;;;;17.55;6.57;;;;;;;15.96;43.04;101918.06;5048286;28;20059;-71
2021/03/31 08:46:38;;;;;;;;;;;;;;;16.12;43.09;101914.16;5042356;28;20037;-66
2021/03/31 08:49:05;;;;;;;15.32;5.85;;;;;;;16.26;41.83;101915.63;5045656;28;19932;-66
2021/03/31 08:51:32;;;;;;;15.32;6.82;;;;;;;16.36;41.87;101911.00;5041387;28;20068;-67
2021/03/31 08:54:01;;;;;;;12.88;7.43;;;;;;;16.39;41.85;101914.44;5043276;28;20048;-66
2021/03/31 08:56:27;;;;;;;16.25;6.00;;;;;;;16.46;41.83;101913.34;5040164;28;20045;-65
2021/03/31 08:58:55;;;;;;;12.50;5.78;;;;;;;16.46;41.49;101907.25;5038607;28;20525;-65
2021/03/31 09:01:26;;;;;;;18.42;7.20;;;;;;;16.45;41.51;101906.38;5040089;28;20071;-65
2021/03/31 09:03:52;;;;;;;21.23;8.45;;;;;;;16.46;41.20;101904.63;5045630;28;20426;-64
2021/03/31 09:06:19;;;;;;;19.13;6.07;;;;;;;16.55;40.54;101903.50;5035353;28;20041;-64
2021/03/31 09:08:46;;;;;;;21.73;8.20;;;;;;;16.68;40.47;101902.31;5044791;28;20102;-67
2021/03/31 09:11:17;;;;;;;16.00;6.70;;;;;;;16.68;41.15;101894.44;5042671;28;20552;-68
2021/03/31 09:13:43;;;;;;;17.00;6.18;;;;;;;16.73;41.15;101892.53;5042641;28;20450;-68
2021/03/31 09:16:13;;;;;;;12.90;6.13;;;;;;;16.82;41.00;101888.81;5038389;28;20073;-68
2021/03/31 09:18:40;;;;;;;16.52;6.05;;;;;;;16.91;40.87;101898.22;5031821;28;20132;-69
2021/03/31 09:24:28;;;;;;;16.90;5.13;;;;;;;17.12;40.17;101881.00;5034305;28;20045;-64
2021/03/31 09:26:57;;;;;;;15.10;7.25;;;;;;;17.21;39.12;101890.41;5041863;28;20099;-66
2021/03/31 09:29:25;;;;;;;15.73;7.25;;;;;;;17.15;39.99;101899.34;5038143;28;20045;-68
2021/03/31 09:31:51;;;;;;;24.45;7.32;;;;;;;17.17;39.95;101894.00;5040944;28;20131;-64
2021/03/31 09:34:18;;;;;;;17.38;7.53;;;;;;;17.22;39.80;101887.72;5039339;28;20128;-66
2021/03/31 09:36:56;;;;;;;19.88;6.57;;;;;;;17.31;40.22;101889.25;5040113;28;20046;-66
2021/03/31 09:39:22;;;;;;;18.20;6.32;;;;;;;17.41;39.63;101889.81;5040873;28;20059;-65
2021/03/31 09:41:49;;;;;;;12.05;5.35;;;;;;;17.48;39.78;101890.50;5038714;28;20097;-66
2021/03/31 09:44:15;;;;;;;11.35;5.55;;;;;;;17.58;39.54;101885.81;5036907;28;20071;-66
2021/03/31 09:46:41;;;;;;;19.73;7.15;;;;;;;17.66;38.81;101887.31;5040973;28;20400;-66
2021/03/31 09:49:08;;;;;;;15.13;6.47;;;;;;;17.76;39.08;101877.38;5038575;28;20049;-65
2021/03/31 09:51:34;;;;;;;19.88;7.40;;;;;;;17.93;37.92;101878.59;5043147;28;20100;-65
2021/03/31 09:54:00;;;;;;;12.48;5.47;;;;;;;17.93;39.34;101873.34;5042442;28;20052;-66
2021/03/31 09:56:27;;;;;;;18.15;7.10;;;;;;;18.05;37.41;101877.38;5040535;28;20063;-66
2021/03/31 09:58:54;;;;;;;25.48;8.25;;;;;;;18.15;37.62;101873.53;5040690;28;20135;-65
2021/03/31 10:01:21;;;;;;;16.88;6.55;;;;;;;18.10;37.52;101871.03;5035551;28;20138;-66
2021/03/31 10:07:12;;;;;;;14.68;6.20;;;;;;;18.16;38.63;101868.22;5035306;28;20589;-68
2021/03/31 10:13:03;;;;;;;18.10;6.85;;;;;;;18.27;37.83;101862.59;5041355;28;20109;-64
2021/03/31 10:15:30;;;;;;;12.30;6.38;;;;;;;18.35;37.39;101857.06;5042196;28;20056;-65
2021/03/31 10:18:40;;;;;;;13.65;6.18;;;;;;;18.38;37.45;101856.09;5045295;28;20064;-65
2021/03/31 10:21:47;;;;;;;13.25;6.70;;;;;;;18.53;36.94;101847.66;5038499;28;20050;-65
2021/03/31 10:24:13;;;;;;;12.88;6.18;;;;;;;18.55;36.08;101845.81;5043589;28;20206;-70
2021/03/31 10:26:47;;;;;;;19.33;7.03;;;;;;;18.62;36.66;101847.31;5046215;28;20464;-69
2021/03/31 10:29:21;;;;;;;12.43;5.45;;;;;;;18.71;37.40;101846.16;5044599;28;20053;-65
2021/03/31 10:31:49;;;;;;;22.87;6.43;;;;;;;18.74;37.06;101834.63;5046284;28;20045;-65
2021/03/31 10:34:16;;;;;;;20.63;6.53;;;;;;;18.81;36.62;101833.50;5042794;28;20304;-67
2021/03/31 10:36:52;;;;;;;12.38;6.55;;;;;;;18.90;36.41;101829.66;5041600;28;20060;-68
2021/03/31 10:50:45;;;;;;;11.23;5.32;;;;;;;19.15;36.23;101832.28;5010115;28;20048;-66
2021/03/31 10:53:30;;;;;;;13.52;5.90;;;;;;;19.18;35.42;101826.91;5047147;28;20510;-66
2021/03/31 10:59:18;;;;;;;12.38;6.20;;;;;;;19.38;35.45;101812.91;5045383;28;20056;-68
2021/03/31 11:01:44;;;;;;;12.63;5.45;;;;;;;19.49;35.17;101812.50;5044194;28;22740;-65
2021/03/31 11:10:55;;;;;;;13.75;6.40;;;;;;;19.78;33.51;101804.31;5045027;28;20047;-67
2021/03/31 11:13:21;;;;;;;17.95;7.10;;;;;;;19.85;33.72;101805.81;5060568;28;20519;-64
2021/03/31 11:25:40;;;;;;;14.65;6.38;;;;;;;20.08;32.47;101786.38;5043387;28;20130;-70
2021/03/31 11:28:08;;;;;;;14.75;5.85;;;;;;;20.13;32.68;101781.75;5046585;28;20052;-67
2021/03/31 11:30:34;;;;;;;11.10;6.00;;;;;;;20.23;32.83;101779.59;5046769;28;20052;-64
2021/03/31 11:33:31;;;;;;;11.63;5.85;;;;;;;20.27;31.87;101778.50;5041188;28;20372;-64
2021/03/31 11:35:57;;;;;;;11.73;6.03;;;;;;;20.46;31.83;101775.94;5040797;28;20049;-65
2021/03/31 11:38:23;;;;;;;12.35;5.22;;;;;;;20.56;31.55;101770.22;5047791;28;20041;-70
2021/03/31 11:40:50;;;;;;;13.48;5.20;;;;;;;20.42;32.20;101774.34;5037874;28;20056;-67
2021/03/31 11:43:18;;;;;;;12.80;5.45;;;;;;;20.62;31.36;101762.00;5041292;28;20098;-66
2021/03/31 12:16:01;;;;;;;12.38;7.13;;;;;;;21.15;31.68;101723.47;5043415;28;20043;-69
2021/03/31 12:18:27;;;;;;;13.05;6.40;;;;;;;21.10;32.71;101723.69;5044713;28;20090;-67
2021/03/31 12:24:52;;;;;;;11.65;6.55;;;;;;;21.16;31.73;101719.03;5047905;28;20111;-66
2021/03/31 12:27:22;;;;;;;15.77;6.63;;;;;;;21.35;30.68;101713.69;5037204;28;20037;-66
2021/03/31 12:29:49;;;;;;;12.10;5.63;;;;;;;21.40;30.80;101715.19;5039388;28;20049;-70
2021/03/31 12:35:37;;;;;;;11.60;5.78;;;;;;;21.50;30.30;101710.28;5034572;28;20492;-65
2021/03/31 12:38:03;;;;;;;10.45;5.13;;;;;;;21.35;31.16;101706.59;5041592;28;20064;-70
2021/03/31 12:40:29;;;;;;;9.82;4.68;;;;;;;21.30;30.93;101703.34;5040841;28;20041;-68
2021/03/31 12:42:55;;;;;;;16.35;5.90;;;;;;;21.35;30.47;101700.47;5039040;28;20045;-67
2021/03/31 12:45:21;;;;;;;16.50;6.10;;;;;;;21.46;30.57;101691.97;5040830;28;20056;-66